Startpagina
METAR-TAF:

METAR-TAF

Vliegvelden :

Internationale Luchthaven Antwerpen

Antwerpen, België

breedte: 51-12N, lengte: 004-28E, hoogte: 12 m

Actueel weer

Dit bericht is 17 minuten geleden gemaakt, om 12:20 UTC
Wind 9 kt uit het oosten
Temperatuur 23°C
Vochtigheid 47%
Druk 1013 hPa
Zicht 10 km of meer
Weinig wolken op 4000 ft

METAR: EBAW 211220Z 10009KT 9999 FEW040 23/11 Q1013 NOSIG

Tijdstip: 14:37 (12:37 UTC)

Verwachting

Dit bericht is 1 uur en het 37 minuten geleden gemaakt, om 11:00 UTC
Verwachting geldig van 21 om 12 UTC tot 21 om 21 UTC
Wind 8 kt uit het oostnoordoosten
Zicht 10 km of meer
Weinig wolken op 4000 ft
Kans 30% :
Tijdelijke
van 21 om 18 UTC tot 21 om 21 UTC
Wind 15 kt uit variabele richting met uitschieters tot 25 kt
Zicht: 3000 m
regenbuien, onweer, regen

TAF: EBAW 211100Z 2112/2121 06008KT 9999 FEW040 PROB30 TEMPO 2118/2121 VRB15G25KT 3000 SHRA TSRA

Waarnemingen en weersverwachtingen van meer dan 4000 vliegvelden (METAR en TAF).

De beschikbare stations zijn de gele en rode punten op de kaart.

Ga met uw muis naar het station om de naam te zien.

Klik dan om waarnemingen en weersverwachtingen te zien.

kaart wijzigen: klik op de groene knoppen met een zwart kruis om in te zoomen, op de groene knop met een streepje om uit te zoomen of op de groene pijlen voor aangrenzende kaarten.


METAR-TAF: